Time;durP1;ratioP1;P1;durP2;ratioP2;P2;SDS_P1;SDS_P2;PMS_P1;PMS_P2;Temp;Humidity;BMP_temperature;BMP_pressure;BME280_temperature;BME280_humidity;BME280_pressure;Samples;Min_cycle;Max_cycle;Signal;HPM_P1;HPM_P2
2021/11/30 00:03:30;;;;;;;4.03;3.73;;;4.90;45.70;;;;;;10316488;28;20704;-76
2021/11/30 00:08:34;;;;;;;4.40;4.00;;;4.90;45.50;;;;;;10312100;28;20249;-77
2021/11/30 00:13:39;;;;;;;4.50;4.10;;;5.00;45.60;;;;;;10310659;28;20282;-76
2021/11/30 00:18:44;;;;;;;4.07;3.67;;;5.00;45.50;;;;;;10322726;28;20239;-77
2021/11/30 00:23:47;;;;;;;5.80;3.57;;;5.00;45.70;;;;;;10323235;28;20238;-77
2021/11/30 00:28:50;;;;;;;3.67;3.37;;;5.00;45.40;;;;;;10310792;28;20235;-77
2021/11/30 00:33:54;;;;;;;3.63;3.33;;;5.00;45.40;;;;;;10316180;28;20231;-76
2021/11/30 00:38:58;;;;;;;3.77;3.43;;;5.00;45.60;;;;;;10320457;28;20261;-77
2021/11/30 00:44:01;;;;;;;4.10;3.70;;;4.90;45.40;;;;;;10314640;28;20721;-77
2021/11/30 00:49:08;;;;;;;4.27;3.97;;;4.90;45.60;;;;;;10322445;28;20323;-77
2021/11/30 00:54:13;;;;;;;3.70;3.40;;;4.90;45.60;;;;;;10322434;28;20219;-76
2021/11/30 00:59:17;;;;;;;3.77;3.50;;;4.90;45.50;;;;;;10319303;28;20259;-77
2021/11/30 01:04:22;;;;;;;3.73;3.43;;;4.80;45.40;;;;;;10313610;28;20235;-77
2021/11/30 01:09:25;;;;;;;3.63;3.33;;;4.80;45.40;;;;;;10311790;28;20242;-77
2021/11/30 01:14:29;;;;;;;3.63;3.33;;;4.80;45.40;;;;;;10319748;28;20246;-76
2021/11/30 01:19:33;;;;;;;3.70;3.20;;;4.80;45.50;;;;;;10319562;28;20736;-76
2021/11/30 01:24:36;;;;;;;3.70;3.40;;;4.80;45.50;;;;;;10329848;28;20246;-76
2021/11/30 01:29:40;;;;;;;3.43;3.13;;;4.80;45.60;;;;;;10323854;28;20235;-77
2021/11/30 01:34:44;;;;;;;3.53;3.20;;;4.70;45.50;;;;;;10333338;28;20238;-76
2021/11/30 01:39:48;;;;;;;3.60;3.30;;;4.70;45.60;;;;;;10317489;28;20231;-76
2021/11/30 01:44:55;;;;;;;3.60;3.30;;;4.70;45.70;;;;;;10328497;28;20241;-76
2021/11/30 01:50:02;;;;;;;3.57;3.27;;;4.70;45.70;;;;;;10316083;28;20234;-76
2021/11/30 01:55:06;;;;;;;3.93;3.53;;;4.70;45.70;;;;;;10329544;28;20230;-76
2021/11/30 02:00:10;;;;;;;3.77;3.37;;;4.70;45.70;;;;;;10320255;28;20227;-76
2021/11/30 02:05:15;;;;;;;3.30;3.00;;;4.60;45.80;;;;;;10328192;28;20724;-76
2021/11/30 02:10:19;;;;;;;3.40;3.10;;;4.60;45.70;;;;;;10325129;28;20704;-76
2021/11/30 02:15:25;;;;;;;3.10;2.90;;;4.60;45.70;;;;;;10325133;28;20230;-77
2021/11/30 02:20:31;;;;;;;3.60;3.30;;;4.60;45.70;;;;;;10326161;28;20241;-76
2021/11/30 02:25:34;;;;;;;4.07;3.67;;;4.60;45.70;;;;;;10319114;28;20249;-77
2021/11/30 02:30:37;;;;;;;3.70;3.40;;;4.60;45.80;;;;;;10320289;28;20610;-77
2021/11/30 02:35:42;;;;;;;3.13;2.93;;;4.60;45.80;;;;;;10319501;28;20293;-77
2021/11/30 02:40:46;;;;;;;3.37;3.07;;;4.60;45.90;;;;;;10320461;28;20318;-77
2021/11/30 02:45:49;;;;;;;3.20;2.90;;;4.60;45.80;;;;;;10315966;28;20247;-76
2021/11/30 02:50:53;;;;;;;3.40;3.20;;;4.60;45.80;;;;;;10327531;28;20238;-77
2021/11/30 02:55:57;;;;;;;3.73;3.37;;;4.60;45.80;;;;;;10322200;28;20237;-76
2021/11/30 03:01:03;;;;;;;3.73;3.00;;;4.60;45.80;;;;;;10319618;28;20224;-76
2021/11/30 03:06:08;;;;;;;2.87;2.67;;;4.60;45.70;;;;;;10318577;28;20254;-76
2021/11/30 03:11:11;;;;;;;3.30;3.00;;;4.60;45.70;;;;;;10321372;28;20743;-77
2021/11/30 03:16:19;;;;;;;2.90;2.70;;;4.70;45.90;;;;;;10313693;28;20219;-77
2021/11/30 03:21:23;;;;;;;3.10;2.80;;;4.60;45.90;;;;;;10324099;28;20243;-77
2021/11/30 03:26:26;;;;;;;2.93;2.70;;;4.70;46.00;;;;;;10321148;28;20256;-77
2021/11/30 03:31:35;;;;;;;3.57;2.97;;;4.70;46.00;;;;;;10315958;28;20228;-77
2021/11/30 03:36:41;;;;;;;2.80;2.43;;;4.70;45.90;;;;;;10329297;28;20250;-77
2021/11/30 03:41:46;;;;;;;3.13;2.83;;;4.80;46.10;;;;;;10323246;28;20234;-77
2021/11/30 03:46:50;;;;;;;2.70;2.50;;;4.80;46.00;;;;;;10323161;28;20604;-77
2021/11/30 03:51:55;;;;;;;2.83;2.63;;;4.80;46.00;;;;;;10318578;28;20236;-77
2021/11/30 03:56:58;;;;;;;3.40;3.10;;;4.80;46.00;;;;;;10325513;28;20725;-77
2021/11/30 04:02:01;;;;;;;2.93;2.60;;;4.90;46.00;;;;;;10324045;28;20230;-77
2021/11/30 04:07:06;;;;;;;2.70;2.50;;;4.90;46.00;;;;;;10308552;28;20231;-77
2021/11/30 04:12:09;;;;;;;3.00;2.80;;;4.90;46.00;;;;;;10324800;28;20218;-77
2021/11/30 04:17:12;;;;;;;2.60;2.40;;;4.90;46.10;;;;;;10325769;28;20606;-77
2021/11/30 04:22:17;;;;;;;2.30;2.10;;;4.90;46.10;;;;;;10320763;28;20226;-77
2021/11/30 04:27:20;;;;;;;2.70;2.50;;;4.90;46.10;;;;;;10319222;28;20571;-77
2021/11/30 04:32:23;;;;;;;2.20;2.00;;;4.90;46.10;;;;;;10311756;28;20592;-77
2021/11/30 04:37:28;;;;;;;3.23;2.10;;;4.90;46.10;;;;;;10323630;28;20236;-76
2021/11/30 04:42:32;;;;;;;1.93;1.83;;;4.90;46.10;;;;;;10324968;28;20241;-77
2021/11/30 04:47:36;;;;;;;2.20;2.10;;;4.90;46.10;;;;;;10317580;28;20245;-76
2021/11/30 04:52:44;;;;;;;2.60;2.40;;;4.90;45.90;;;;;;10313316;28;20314;-77
2021/11/30 04:57:47;;;;;;;2.40;2.30;;;4.90;45.90;;;;;;10302404;28;21116;-77
2021/11/30 05:02:50;;;;;;;3.20;2.20;;;5.00;45.90;;;;;;10318645;28;20233;-77
2021/11/30 05:07:55;;;;;;;4.27;2.40;;;5.00;45.90;;;;;;10322229;28;20235;-77
2021/11/30 05:12:58;;;;;;;2.10;2.00;;;5.00;45.70;;;;;;10318614;28;20225;-77
2021/11/30 05:18:02;;;;;;;3.47;2.23;;;5.00;45.60;;;;;;10314155;28;20223;-76
2021/11/30 05:23:06;;;;;;;2.90;2.30;;;5.10;45.60;;;;;;10307522;28;20223;-77
2021/11/30 05:28:10;;;;;;;4.73;2.60;;;5.00;45.50;;;;;;10315497;28;20719;-77
2021/11/30 05:33:13;;;;;;;2.10;2.00;;;5.10;45.60;;;;;;10321112;28;20223;-77
2021/11/30 05:38:18;;;;;;;2.40;2.20;;;5.10;45.50;;;;;;10323737;28;20255;-77
2021/11/30 05:43:22;;;;;;;2.23;2.00;;;5.10;45.30;;;;;;10314276;28;21241;-78
2021/11/30 05:48:25;;;;;;;2.07;1.97;;;5.10;45.30;;;;;;10315971;28;20803;-77
2021/11/30 05:53:30;;;;;;;2.10;2.00;;;5.10;45.20;;;;;;10315119;28;20231;-78
2021/11/30 05:58:36;;;;;;;2.83;2.00;;;4.90;45.00;;;;;;10315559;28;20239;-77
2021/11/30 06:03:59;;;;;;;2.50;2.00;;;5.10;45.20;;;;;;10312619;28;20231;-77
2021/11/30 06:09:06;;;;;;;2.00;1.90;;;5.00;44.90;;;;;;10316314;28;20245;-77
2021/11/30 06:14:09;;;;;;;1.77;1.67;;;5.00;44.60;;;;;;10310729;28;20259;-78
2021/11/30 06:19:13;;;;;;;2.27;2.00;;;5.00;45.00;;;;;;10316537;28;20281;-77
2021/11/30 06:24:19;;;;;;;1.83;1.70;;;5.00;44.70;;;;;;10318110;28;20226;-77
2021/11/30 06:29:22;;;;;;;2.53;2.33;;;5.00;44.70;;;;;;10321579;28;20266;-80
2021/11/30 06:34:25;;;;;;;2.23;2.00;;;4.90;44.60;;;;;;10320736;28;20219;-80
2021/11/30 06:39:30;;;;;;;2.10;1.93;;;4.90;44.70;;;;;;10326381;28;21165;-80
2021/11/30 06:44:35;;;;;;;1.87;1.77;;;4.90;44.60;;;;;;10321482;28;20224;-81
2021/11/30 06:49:38;;;;;;;2.50;2.17;;;4.90;44.60;;;;;;10335404;28;20239;-80
2021/11/30 06:54:46;;;;;;;2.73;2.40;;;4.80;44.50;;;;;;10325831;28;20227;-80
2021/11/30 06:59:49;;;;;;;3.30;2.47;;;4.80;44.60;;;;;;10320182;28;20235;-80
2021/11/30 07:04:55;;;;;;;2.57;2.00;;;4.80;44.70;;;;;;10338434;28;20254;-80
2021/11/30 07:10:11;;;;;;;2.90;2.60;;;4.80;44.60;;;;;;10331016;28;20223;-81
2021/11/30 07:25:52;;;;;;;2.83;2.50;;;4.80;44.60;;;;;;10364383;28;20248;-72
2021/11/30 07:30:55;;;;;;;2.27;2.07;;;4.80;44.50;;;;;;10367097;28;20234;-72
2021/11/30 07:35:59;;;;;;;2.87;2.50;;;4.80;44.60;;;;;;10366805;28;20285;-73
2021/11/30 07:41:04;;;;;;;2.83;2.60;;;4.90;44.80;;;;;;10366053;28;20799;-71
2021/11/30 07:46:08;;;;;;;3.63;3.33;;;4.80;44.60;;;;;;10366599;28;20234;-71
2021/11/30 07:51:15;;;;;;;3.00;2.80;;;4.80;44.70;;;;;;10366186;28;20230;-73
2021/11/30 07:56:20;;;;;;;2.40;2.20;;;4.80;44.70;;;;;;10365802;28;20234;-73
2021/11/30 08:01:23;;;;;;;2.53;2.27;;;4.80;44.50;;;;;;10366029;28;20232;-73
2021/11/30 08:06:26;;;;;;;3.23;2.53;;;4.80;44.60;;;;;;10365595;28;20265;-73
2021/11/30 08:11:31;;;;;;;3.43;2.50;;;4.80;44.70;;;;;;10365332;28;20738;-74
2021/11/30 08:16:34;;;;;;;3.10;2.80;;;4.80;44.60;;;;;;10365656;28;20242;-74
2021/11/30 08:21:38;;;;;;;3.90;2.60;;;4.80;44.50;;;;;;10372661;28;21000;-75
2021/11/30 08:26:43;;;;;;;2.30;2.10;;;4.80;44.50;;;;;;10406458;28;20248;-74
2021/11/30 08:31:46;;;;;;;3.13;2.60;;;4.80;44.20;;;;;;10405915;28;20230;-75
2021/11/30 08:36:50;;;;;;;3.63;2.60;;;4.80;44.50;;;;;;10411207;28;20261;-74
2021/11/30 08:41:54;;;;;;;2.90;2.40;;;4.80;44.50;;;;;;10415032;28;20240;-74
2021/11/30 08:47:04;;;;;;;2.90;2.60;;;4.80;44.60;;;;;;10414739;28;20249;-74
2021/11/30 08:52:11;;;;;;;3.20;2.43;;;4.70;44.60;;;;;;10414883;28;20237;-74
2021/11/30 08:57:16;;;;;;;2.67;2.40;;;4.70;44.70;;;;;;10414098;28;20238;-76
2021/11/30 09:02:21;;;;;;;4.70;2.40;;;4.70;44.70;;;;;;10414861;28;20241;-75
2021/11/30 09:07:24;;;;;;;2.57;2.37;;;4.70;44.90;;;;;;10407164;28;20237;-74
2021/11/30 09:12:29;;;;;;;2.70;2.50;;;4.60;45.00;;;;;;10405803;28;20248;-73
2021/11/30 09:17:35;;;;;;;3.17;2.90;;;4.50;45.20;;;;;;10405846;28;20237;-73
2021/11/30 09:22:39;;;;;;;3.80;2.60;;;4.70;45.40;;;;;;10403521;28;20236;-75
2021/11/30 09:27:44;;;;;;;3.53;2.77;;;4.50;45.40;;;;;;10404552;28;20777;-73
2021/11/30 09:32:48;;;;;;;3.90;3.50;;;4.50;45.40;;;;;;10406131;28;20256;-74
2021/11/30 09:37:53;;;;;;;3.10;2.40;;;4.50;45.30;;;;;;10405750;28;20332;-74
2021/11/30 09:42:58;;;;;;;2.80;2.20;;;4.50;45.40;;;;;;10404998;28;20229;-75
2021/11/30 09:48:11;;;;;;;2.97;2.67;;;4.50;45.50;;;;;;10404756;28;20244;-73
2021/11/30 09:53:15;;;;;;;3.10;2.80;;;4.60;45.70;;;;;;10405242;28;20768;-73
2021/11/30 09:58:22;;;;;;;3.47;2.50;;;4.60;45.60;;;;;;10405256;28;20242;-74
2021/11/30 10:03:25;;;;;;;2.63;2.43;;;4.60;45.60;;;;;;10404196;28;20696;-74
2021/11/30 10:08:32;;;;;;;2.70;2.50;;;4.60;45.70;;;;;;10404072;28;20237;-73
2021/11/30 10:13:45;;;;;;;2.80;2.40;;;4.60;46.30;;;;;;10403963;28;20229;-74
2021/11/30 10:18:49;;;;;;;5.73;3.10;;;4.60;45.70;;;;;;10404359;28;20568;-75
2021/11/30 10:23:54;;;;;;;4.23;2.60;;;4.60;45.60;;;;;;10400478;28;20238;-76
2021/11/30 10:29:01;;;;;;;2.70;2.50;;;4.60;45.60;;;;;;10403146;28;20652;-76
2021/11/30 10:34:13;;;;;;;2.73;2.53;;;4.70;45.90;;;;;;10407574;28;20240;-76
2021/11/30 10:39:19;;;;;;;3.00;2.60;;;4.70;45.80;;;;;;10409495;28;20244;-75
2021/11/30 10:44:31;;;;;;;2.37;2.17;;;4.70;45.70;;;;;;10398754;28;20241;-75
2021/11/30 10:49:43;;;;;;;3.93;2.30;;;4.70;46.10;;;;;;10409676;28;20244;-75
2021/11/30 10:54:46;;;;;;;3.67;2.20;;;4.70;46.20;;;;;;10411600;28;20233;-76
2021/11/30 10:59:51;;;;;;;2.53;2.10;;;4.60;46.00;;;;;;10412470;28;20235;-77
2021/11/30 11:04:54;;;;;;;2.80;2.07;;;4.60;46.30;;;;;;10412830;28;20240;-76
2021/11/30 11:09:59;;;;;;;2.30;2.10;;;4.50;46.20;;;;;;10412278;28;20326;-77
2021/11/30 11:15:05;;;;;;;2.83;2.30;;;4.50;46.30;;;;;;10412247;28;20342;-77
2021/11/30 11:20:09;;;;;;;2.30;2.10;;;4.40;46.60;;;;;;10412452;28;20259;-77
2021/11/30 11:25:12;;;;;;;2.40;2.20;;;4.50;46.50;;;;;;10412970;28;20887;-77
2021/11/30 11:30:17;;;;;;;2.83;2.60;;;4.40;46.50;;;;;;10413230;28;20731;-77
2021/11/30 11:35:24;;;;;;;2.23;2.03;;;4.60;46.80;;;;;;10410542;28;20256;-76
2021/11/30 11:40:27;;;;;;;2.53;2.23;;;4.50;46.50;;;;;;10411146;28;20247;-74
2021/11/30 11:45:32;;;;;;;2.40;2.20;;;4.60;46.50;;;;;;10364217;28;20250;-76
2021/11/30 11:50:53;;;;;;;3.17;2.50;;;4.50;46.50;;;;;;10365037;28;20238;-77
2021/11/30 11:56:18;;;;;;;2.90;1.90;;;4.50;46.60;;;;;;10362571;28;20237;-73
2021/11/30 12:01:25;;;;;;;2.40;1.97;;;4.50;46.90;;;;;;10392555;28;20317;-73
2021/11/30 12:06:31;;;;;;;2.10;2.00;;;4.50;46.70;;;;;;10409991;28;20240;-75
2021/11/30 12:11:36;;;;;;;2.10;1.90;;;4.50;46.80;;;;;;10409759;28;20240;-73
2021/11/30 12:17:05;;;;;;;3.60;2.33;;;4.60;46.80;;;;;;10409779;28;21198;-74
2021/11/30 12:22:10;;;;;;;2.23;2.00;;;4.50;47.20;;;;;;10410074;28;20320;-74
2021/11/30 12:27:39;;;;;;;4.03;3.00;;;4.50;47.00;;;;;;10409920;28;20263;-75
2021/11/30 12:32:53;;;;;;;4.07;3.13;;;4.50;47.40;;;;;;10407925;28;20320;-75
2021/11/30 12:38:15;;;;;;;3.93;2.63;;;4.50;47.90;;;;;;10412489;28;20244;-76
2021/11/30 12:43:23;;;;;;;2.60;2.40;;;4.50;47.30;;;;;;10411888;28;20256;-76
2021/11/30 12:48:39;;;;;;;2.40;2.20;;;4.50;47.20;;;;;;10415068;28;20280;-77
2021/11/30 12:53:44;;;;;;;1.93;1.83;;;4.50;47.80;;;;;;10408995;28;20260;-77
2021/11/30 12:58:49;;;;;;;2.03;1.83;;;4.50;47.40;;;;;;10409134;28;20607;-76
2021/11/30 13:04:31;;;;;;;2.30;2.10;;;4.50;47.70;;;;;;10410853;28;20238;-77
2021/11/30 13:09:40;;;;;;;2.33;1.80;;;4.40;48.10;;;;;;10410195;28;20236;-77
2021/11/30 13:14:44;;;;;;;3.13;2.20;;;4.60;48.20;;;;;;10404855;28;20238;-77
2021/11/30 13:19:49;;;;;;;4.03;2.10;;;4.40;47.70;;;;;;10412874;28;20240;-77
2021/11/30 13:24:55;;;;;;;2.30;1.90;;;4.50;47.80;;;;;;10452136;28;20330;-77
2021/11/30 13:30:01;;;;;;;2.33;1.90;;;4.50;47.90;;;;;;10457860;28;20617;-75
2021/11/30 13:35:11;;;;;;;2.50;2.30;;;4.50;48.10;;;;;;10457828;28;20239;-77
2021/11/30 13:40:15;;;;;;;2.20;2.03;;;4.50;48.20;;;;;;10457108;28;20239;-75
2021/11/30 13:45:18;;;;;;;2.30;2.10;;;4.60;47.80;;;;;;10456109;28;20343;-75
2021/11/30 13:50:25;;;;;;;2.47;2.27;;;4.60;48.00;;;;;;10456679;28;20237;-78
2021/11/30 13:55:29;;;;;;;2.17;1.90;;;4.60;48.20;;;;;;10454981;28;20256;-76
2021/11/30 14:00:34;;;;;;;2.10;1.90;;;4.60;47.90;;;;;;10456090;28;20316;-76
2021/11/30 14:05:40;;;;;;;2.90;2.20;;;4.60;47.70;;;;;;10456120;28;20303;-76
2021/11/30 14:10:45;;;;;;;2.20;2.00;;;4.60;48.20;;;;;;10454939;28;20343;-75
2021/11/30 14:15:57;;;;;;;2.20;2.00;;;4.60;48.20;;;;;;10455188;28;20236;-77
2021/11/30 14:21:15;;;;;;;2.03;1.90;;;4.80;48.10;;;;;;10455590;28;20282;-76
2021/11/30 14:26:24;;;;;;;2.10;1.93;;;4.70;48.30;;;;;;10455250;28;20312;-77
2021/11/30 14:31:49;;;;;;;2.00;1.80;;;4.60;48.20;;;;;;10455678;28;20233;-79
2021/11/30 14:36:54;;;;;;;2.33;1.73;;;4.60;48.20;;;;;;10452879;28;20247;-76
2021/11/30 14:41:58;;;;;;;1.87;1.77;;;4.70;48.30;;;;;;10453395;28;20236;-78
2021/11/30 14:47:16;;;;;;;2.67;1.90;;;4.70;48.30;;;;;;10454708;28;20287;-75
2021/11/30 14:52:20;;;;;;;2.30;2.10;;;4.70;48.30;;;;;;10452929;28;20236;-76
2021/11/30 14:57:28;;;;;;;3.20;2.13;;;4.70;48.30;;;;;;10451314;28;20264;-76
2021/11/30 15:02:31;;;;;;;2.20;2.00;;;4.80;48.40;;;;;;10452489;28;20229;-76
2021/11/30 15:07:36;;;;;;;2.13;1.93;;;4.80;48.40;;;;;;10453022;28;20240;-76
2021/11/30 15:12:39;;;;;;;1.60;1.50;;;4.80;48.40;;;;;;10454446;28;20718;-77
2021/11/30 15:17:44;;;;;;;3.43;2.10;;;4.80;48.40;;;;;;10453963;28;20225;-76
2021/11/30 15:22:48;;;;;;;2.60;2.40;;;4.90;48.50;;;;;;10454270;28;20260;-77
2021/11/30 15:27:52;;;;;;;2.40;2.20;;;4.90;48.50;;;;;;10454984;28;20245;-78
2021/11/30 15:32:56;;;;;;;1.90;1.80;;;4.90;48.50;;;;;;10455707;28;20233;-77
2021/11/30 15:38:02;;;;;;;1.83;1.73;;;4.90;48.50;;;;;;10453863;28;20239;-77
2021/11/30 15:43:05;;;;;;;1.77;1.63;;;4.90;48.50;;;;;;10452239;28;20237;-74
2021/11/30 15:48:08;;;;;;;1.87;1.77;;;4.90;48.50;;;;;;10452678;28;20722;-78
2021/11/30 15:53:13;;;;;;;1.80;1.70;;;4.90;48.50;;;;;;10440014;28;20237;-76
2021/11/30 15:58:16;;;;;;;1.70;1.60;;;5.00;48.60;;;;;;10411591;28;20603;-76
2021/11/30 16:03:19;;;;;;;1.50;1.40;;;5.00;48.60;;;;;;10411478;28;20244;-78
2021/11/30 16:08:24;;;;;;;1.83;1.73;;;5.00;48.60;;;;;;10411313;28;20247;-78
2021/11/30 16:13:31;;;;;;;1.20;1.20;;;5.10;48.70;;;;;;10412623;28;20226;-78
2021/11/30 16:18:34;;;;;;;2.10;1.90;;;5.10;48.70;;;;;;10405132;28;20233;-77
2021/11/30 16:23:39;;;;;;;2.00;1.63;;;5.20;48.70;;;;;;10412828;28;20261;-78
2021/11/30 16:28:43;;;;;;;2.00;1.80;;;5.20;48.70;;;;;;10411872;28;20233;-77
2021/11/30 16:33:46;;;;;;;1.90;1.80;;;5.20;48.70;;;;;;10411701;28;20233;-77
2021/11/30 16:38:51;;;;;;;1.90;1.70;;;5.20;48.70;;;;;;10411295;28;20609;-78
2021/11/30 16:43:54;;;;;;;1.80;1.70;;;5.30;48.80;;;;;;10410302;28;20308;-78
2021/11/30 16:48:57;;;;;;;2.87;1.90;;;5.20;48.70;;;;;;10410000;28;20237;-78
2021/11/30 16:54:03;;;;;;;1.87;1.77;;;5.30;48.80;;;;;;10410635;28;20345;-78
2021/11/30 16:59:09;;;;;;;1.93;1.83;;;5.30;48.80;;;;;;10414154;28;20229;-77
2021/11/30 17:04:12;;;;;;;2.00;1.90;;;5.30;48.90;;;;;;10416302;28;20673;-77
2021/11/30 17:09:25;;;;;;;1.87;1.77;;;5.30;48.80;;;;;;10417151;28;20317;-78
2021/11/30 17:14:29;;;;;;;2.47;2.00;;;5.20;48.70;;;;;;10417802;28;20317;-77
2021/11/30 17:19:33;;;;;;;2.30;2.10;;;5.20;48.70;;;;;;10418543;28;20243;-77
2021/11/30 17:24:42;;;;;;;2.80;2.37;;;5.20;48.70;;;;;;10407573;28;20273;-76
2021/11/30 17:29:46;;;;;;;1.80;1.70;;;5.30;48.80;;;;;;10416032;28;20242;-77
2021/11/30 17:34:51;;;;;;;2.33;2.13;;;5.30;48.80;;;;;;10412051;28;20964;-77
2021/11/30 17:39:56;;;;;;;2.00;1.90;;;5.30;48.80;;;;;;10394108;28;20248;-78
2021/11/30 17:44:59;;;;;;;2.03;1.93;;;5.40;48.90;;;;;;10375178;28;20242;-78
2021/11/30 17:50:02;;;;;;;3.53;3.23;;;5.40;48.90;;;;;;10386562;28;20808;-78
2021/11/30 17:55:17;;;;;;;2.87;2.67;;;5.40;48.90;;;;;;10425547;28;20259;-76
2021/11/30 18:00:21;;;;;;;2.70;2.50;;;5.40;48.90;;;;;;10415220;28;20577;-78
2021/11/30 18:05:26;;;;;;;3.00;2.70;;;5.50;49.00;;;;;;10409982;28;20531;-77
2021/11/30 18:10:34;;;;;;;2.80;2.60;;;5.50;49.00;;;;;;10406839;28;20229;-77
2021/11/30 18:15:39;;;;;;;2.40;2.20;;;5.50;49.00;;;;;;10398981;28;20237;-78
2021/11/30 18:20:45;;;;;;;2.70;2.50;;;5.50;49.00;;;;;;10374628;28;20242;-78
2021/11/30 18:25:49;;;;;;;3.40;3.10;;;5.50;49.00;;;;;;10415131;28;20317;-78
2021/11/30 18:30:53;;;;;;;3.30;3.00;;;5.60;49.10;;;;;;10413313;28;20238;-77
2021/11/30 18:35:56;;;;;;;3.60;3.30;;;5.60;49.10;;;;;;10406675;28;20521;-78
2021/11/30 18:41:00;;;;;;;2.57;2.23;;;5.70;49.10;;;;;;10413893;28;20686;-78
2021/11/30 18:46:04;;;;;;;2.10;2.00;;;5.70;49.10;;;;;;10413900;28;20243;-77
2021/11/30 18:51:07;;;;;;;2.20;2.00;;;5.70;49.10;;;;;;10412680;28;20650;-77
2021/11/30 18:56:14;;;;;;;2.17;1.97;;;5.80;49.20;;;;;;10412083;28;20248;-77
2021/11/30 19:01:18;;;;;;;1.70;1.60;;;5.80;49.20;;;;;;10411906;28;20242;-77
2021/11/30 19:06:22;;;;;;;1.90;1.80;;;5.80;49.20;;;;;;10411543;28;20280;-77
2021/11/30 19:11:32;;;;;;;3.00;1.80;;;5.90;49.30;;;;;;10411265;28;20233;-77
2021/11/30 19:16:35;;;;;;;2.00;1.90;;;5.90;49.30;;;;;;10410439;28;20252;-77
2021/11/30 19:21:38;;;;;;;1.97;1.87;;;5.90;50.10;;;;;;10409267;28;20243;-77
2021/11/30 19:26:43;;;;;;;1.73;1.63;;;5.90;49.30;;;;;;10409493;28;20237;-77
2021/11/30 19:31:46;;;;;;;1.70;1.60;;;5.90;49.30;;;;;;10408988;28;20237;-75
2021/11/30 19:36:50;;;;;;;1.30;1.30;;;6.00;49.40;;;;;;10408369;28;20743;-76
2021/11/30 19:41:55;;;;;;;2.10;1.90;;;6.00;49.40;;;;;;10385239;28;20242;-75
2021/11/30 19:46:59;;;;;;;1.70;1.60;;;6.00;49.40;;;;;;10402920;28;20240;-77
2021/11/30 19:52:03;;;;;;;1.40;1.30;;;6.10;49.30;;;;;;10402286;28;20244;-77
2021/11/30 19:57:12;;;;;;;1.60;1.50;;;6.10;48.90;;;;;;10392454;28;20231;-78
2021/11/30 20:07:37;;;;;;;1.47;1.43;;;6.20;49.20;;;;;;10391736;28;20229;-75
2021/11/30 20:12:42;;;;;;;1.60;1.50;;;6.20;49.20;;;;;;10392090;28;20241;-76
2021/11/30 20:17:45;;;;;;;1.47;1.37;;;6.20;49.70;;;;;;10391959;28;20229;-76
2021/11/30 20:22:49;;;;;;;1.60;1.50;;;6.30;48.90;;;;;;10360183;28;21366;-75
2021/11/30 20:27:55;;;;;;;1.70;1.60;;;6.30;49.00;;;;;;10363008;28;20241;-74
2021/11/30 20:32:59;;;;;;;1.70;1.60;;;6.40;49.00;;;;;;10367081;28;20747;-74
2021/11/30 20:43:31;;;;;;;1.50;1.40;;;6.40;49.10;;;;;;10370487;28;20234;-74
2021/11/30 20:48:34;;;;;;;1.40;1.30;;;6.40;49.00;;;;;;10366768;28;20243;-76
2021/11/30 20:53:38;;;;;;;1.20;1.20;;;6.40;48.80;;;;;;10357721;28;20454;-76
2021/11/30 20:58:45;;;;;;;1.20;1.20;;;6.40;48.80;;;;;;10370902;28;20321;-75
2021/11/30 21:03:48;;;;;;;1.30;1.30;;;6.40;49.00;;;;;;10377944;28;20599;-77
2021/11/30 21:08:51;;;;;;;1.30;1.30;;;6.50;49.00;;;;;;10352541;28;20238;-75
2021/11/30 21:13:56;;;;;;;1.50;1.40;;;6.50;48.90;;;;;;10371429;28;20257;-77
2021/11/30 21:19:07;;;;;;;1.10;1.10;;;6.50;48.90;;;;;;10350000;28;20716;-76
2021/11/30 21:24:10;;;;;;;1.93;1.50;;;6.60;49.00;;;;;;10337486;28;20242;-75
2021/11/30 21:29:15;;;;;;;1.33;1.30;;;6.60;48.90;;;;;;10366882;28;20249;-74
2021/11/30 21:34:19;;;;;;;1.27;1.20;;;6.60;49.10;;;;;;10376853;28;20241;-74
2021/11/30 21:39:23;;;;;;;1.27;1.27;;;6.60;48.90;;;;;;10377777;28;20230;-75
2021/11/30 21:44:27;;;;;;;1.40;1.30;;;6.60;49.00;;;;;;10381995;28;20244;-76
2021/11/30 21:49:31;;;;;;;1.30;1.30;;;6.60;49.10;;;;;;10387526;28;20942;-77
2021/11/30 21:54:35;;;;;;;1.40;1.30;;;6.60;49.10;;;;;;10393565;28;20248;-77
2021/11/30 21:59:43;;;;;;;1.10;1.10;;;6.60;49.30;;;;;;10399149;28;20909;-80
2021/11/30 22:04:46;;;;;;;1.30;1.30;;;6.60;49.50;;;;;;10382176;28;20336;-77
2021/11/30 22:09:50;;;;;;;1.10;1.10;;;6.70;49.40;;;;;;10374173;28;20233;-77
2021/11/30 22:14:55;;;;;;;1.10;1.10;;;6.70;49.50;;;;;;10374340;28;20225;-76
2021/11/30 22:19:59;;;;;;;1.20;1.20;;;6.70;49.70;;;;;;10367669;28;20641;-78
2021/11/30 22:25:05;;;;;;;1.20;1.10;;;6.70;49.50;;;;;;10373302;28;20321;-77
2021/11/30 22:30:11;;;;;;;1.10;1.10;;;6.80;49.70;;;;;;10373661;28;21344;-77
2021/11/30 22:35:16;;;;;;;1.10;1.10;;;6.80;49.60;;;;;;10372607;28;20239;-78
2021/11/30 22:40:20;;;;;;;1.07;1.07;;;6.80;49.50;;;;;;10367355;28;20258;-77
2021/11/30 22:45:26;;;;;;;1.00;1.00;;;6.80;49.50;;;;;;10370925;28;20324;-77
2021/11/30 22:50:30;;;;;;;1.30;1.20;;;6.90;49.70;;;;;;10359566;28;20253;-77
2021/11/30 22:55:33;;;;;;;1.90;1.10;;;6.90;49.70;;;;;;10370218;28;20612;-78
2021/11/30 23:00:41;;;;;;;1.60;1.50;;;6.90;49.70;;;;;;10370059;28;20344;-77
2021/11/30 23:05:44;;;;;;;1.50;1.40;;;6.90;50.10;;;;;;10364514;28;20233;-78
2021/11/30 23:10:48;;;;;;;1.50;1.40;;;6.90;50.10;;;;;;10373924;28;20234;-78
2021/11/30 23:15:53;;;;;;;1.40;1.30;;;6.90;50.10;;;;;;10379272;28;20238;-77
2021/11/30 23:20:58;;;;;;;1.27;1.20;;;7.00;50.20;;;;;;10371706;28;20241;-77
2021/11/30 23:26:21;;;;;;;1.20;1.20;;;7.00;50.00;;;;;;10385996;28;20692;-77
2021/11/30 23:31:25;;;;;;;1.10;1.10;;;7.00;50.00;;;;;;10405213;28;20615;-77
2021/11/30 23:36:31;;;;;;;1.23;1.23;;;7.00;50.30;;;;;;10402269;28;20240;-77
2021/11/30 23:41:35;;;;;;;1.30;1.20;;;7.10;50.00;;;;;;10402262;28;20228;-77
2021/11/30 23:46:45;;;;;;;1.00;1.00;;;7.10;49.80;;;;;;10401110;28;20796;-77
2021/11/30 23:51:49;;;;;;;1.17;1.10;;;7.10;50.20;;;;;;10392949;28;20233;-77
2021/11/30 23:56:52;;;;;;;1.13;1.13;;;7.10;49.70;;;;;;10398711;28;20256;-78
